Time;durP1;ratioP1;P1;durP2;ratioP2;P2;SDS_P1;SDS_P2;PMS_P1;PMS_P2;Temp;Humidity;BMP_temperature;BMP_pressure;BME280_temperature;BME280_humidity;BME280_pressure;Samples;Min_cycle;Max_cycle;Signal;HPM_P1;HPM_P2
2023/12/11 00:00:13;;;;;;;2.08;0.77;;;10.60;87.70;;;;;;2552222;28;20408;-77
2023/12/11 00:01:32;;;;;;;3.00;0.95;;;10.70;87.60;;;;;;2552062;28;20049;-78
2023/12/11 00:02:46;;;;;;;1.10;0.63;;;10.70;87.60;;;;;;2559722;28;20048;-77
2023/12/11 00:04:00;;;;;;;2.83;0.60;;;10.70;87.50;;;;;;2553397;28;20068;-78
2023/12/11 00:05:15;;;;;;;4.03;0.70;;;10.70;87.50;;;;;;2559499;28;20045;-77
2023/12/11 00:06:29;;;;;;;1.67;0.73;;;10.70;87.40;;;;;;2552469;28;20484;-77
2023/12/11 00:07:44;;;;;;;1.35;0.63;;;10.70;87.30;;;;;;2551779;28;20050;-78
2023/12/11 00:08:57;;;;;;;9.10;1.15;;;10.70;87.20;;;;;;2552127;28;20048;-77
2023/12/11 00:10:12;;;;;;;1.83;0.70;;;10.70;87.10;;;;;;2555086;28;20059;-77
2023/12/11 00:11:26;;;;;;;2.78;0.70;;;10.80;87.10;;;;;;2557030;28;20535;-77
2023/12/11 00:12:42;;;;;;;2.47;0.63;;;10.80;87.90;;;;;;2552745;28;20056;-78
2023/12/11 00:13:55;;;;;;;1.80;0.80;;;10.70;87.00;;;;;;2552473;28;20524;-78
2023/12/11 00:15:11;;;;;;;4.28;1.15;;;10.80;87.00;;;;;;2553812;28;20051;-77
2023/12/11 00:16:24;;;;;;;1.80;0.73;;;10.80;87.00;;;;;;2557805;28;20044;-77
2023/12/11 00:17:39;;;;;;;0.85;0.80;;;10.80;87.00;;;;;;2558564;28;20540;-77
2023/12/11 00:18:53;;;;;;;4.22;0.65;;;10.80;87.10;;;;;;2553757;28;20048;-78
2023/12/11 00:20:09;;;;;;;1.63;0.73;;;10.80;87.10;;;;;;2559899;28;20048;-78
2023/12/11 00:21:22;;;;;;;0.57;0.47;;;10.80;87.20;;;;;;2552060;28;20074;-77
2023/12/11 00:22:37;;;;;;;2.35;0.82;;;10.70;87.30;;;;;;2557995;28;20051;-78
2023/12/11 00:23:53;;;;;;;0.47;0.40;;;10.70;87.50;;;;;;2561882;28;20048;-77
2023/12/11 00:25:09;;;;;;;1.50;1.00;;;10.70;87.70;;;;;;2543960;28;20485;-77
2023/12/11 00:26:24;;;;;;;2.17;0.80;;;10.70;87.80;;;;;;2552241;28;20094;-77
2023/12/11 00:27:39;;;;;;;5.70;1.08;;;10.70;87.90;;;;;;2557696;28;20081;-78
2023/12/11 00:28:54;;;;;;;1.67;0.57;;;10.70;88.00;;;;;;2562061;28;20489;-77
2023/12/11 00:30:10;;;;;;;3.78;0.98;;;10.70;88.10;;;;;;2546016;28;20099;-77
2023/12/11 00:31:23;;;;;;;0.65;0.65;;;10.70;88.20;;;;;;2557571;28;20555;-78
2023/12/11 00:32:38;;;;;;;1.63;0.70;;;10.70;88.30;;;;;;2552294;28;20048;-76
2023/12/11 00:33:52;;;;;;;1.48;0.73;;;10.70;88.40;;;;;;2560126;28;20093;-77
2023/12/11 00:35:07;;;;;;;3.10;1.20;;;10.70;88.50;;;;;;2559991;28;20097;-77
2023/12/11 00:36:21;;;;;;;2.95;0.60;;;10.70;88.50;;;;;;2555881;28;20048;-78
2023/12/11 00:37:36;;;;;;;3.08;0.82;;;10.70;88.50;;;;;;2556325;28;20071;-78
2023/12/11 00:38:49;;;;;;;1.83;0.95;;;10.70;88.50;;;;;;2549900;28;20052;-78
2023/12/11 00:40:06;;;;;;;1.05;0.52;;;10.70;88.50;;;;;;2551606;28;20044;-78
2023/12/11 00:41:20;;;;;;;2.20;0.77;;;10.70;88.50;;;;;;2557837;28;20049;-77
2023/12/11 00:42:34;;;;;;;1.25;0.73;;;10.70;88.50;;;;;;2556959;28;20365;-77
2023/12/11 00:43:49;;;;;;;1.33;0.50;;;10.70;88.50;;;;;;2553002;28;20049;-78
2023/12/11 00:45:06;;;;;;;2.00;0.70;;;10.70;88.60;;;;;;2560790;28;20048;-78
2023/12/11 00:46:21;;;;;;;3.15;0.93;;;10.70;88.60;;;;;;2557898;28;20044;-78
2023/12/11 00:47:36;;;;;;;1.38;0.60;;;10.80;88.70;;;;;;2550923;28;20056;-78
2023/12/11 00:48:50;;;;;;;6.47;0.85;;;10.70;88.60;;;;;;2551251;28;20080;-78
2023/12/11 00:50:05;;;;;;;3.00;0.70;;;10.70;88.60;;;;;;2551363;28;20040;-77
2023/12/11 00:51:20;;;;;;;1.08;0.57;;;10.70;88.60;;;;;;2554242;28;20044;-77
2023/12/11 00:52:35;;;;;;;2.65;1.17;;;10.70;88.60;;;;;;2555411;28;20394;-78
2023/12/11 00:53:49;;;;;;;4.85;1.58;;;10.70;88.70;;;;;;2558996;28;20101;-78
2023/12/11 00:55:04;;;;;;;0.95;0.75;;;10.70;88.70;;;;;;2551952;28;20133;-78
2023/12/11 00:56:18;;;;;;;3.03;1.08;;;10.70;88.70;;;;;;2551903;28;20524;-78
2023/12/11 00:57:32;;;;;;;3.45;0.60;;;10.70;88.80;;;;;;2552031;28;20060;-78
2023/12/11 00:58:46;;;;;;;0.80;0.65;;;10.70;88.90;;;;;;2552263;28;20079;-78
2023/12/11 01:00:01;;;;;;;0.60;0.60;;;10.70;89.00;;;;;;2551450;28;20041;-78
2023/12/11 01:01:16;;;;;;;1.95;1.10;;;10.70;89.00;;;;;;2554611;28;20049;-77
2023/12/11 01:02:30;;;;;;;2.30;0.73;;;10.70;89.10;;;;;;2562218;28;20068;-77
2023/12/11 01:03:44;;;;;;;2.05;1.20;;;10.70;89.20;;;;;;2561478;28;20052;-78
2023/12/11 01:04:59;;;;;;;4.18;0.90;;;10.70;89.20;;;;;;2553422;28;20489;-78
2023/12/11 01:06:12;;;;;;;4.28;2.60;;;10.70;89.10;;;;;;2559732;28;20476;-77
2023/12/11 01:07:27;;;;;;;2.47;0.50;;;10.70;89.20;;;;;;2551455;28;20037;-77
2023/12/11 01:08:41;;;;;;;1.85;0.90;;;10.70;89.20;;;;;;2558036;28;20538;-77
2023/12/11 01:09:56;;;;;;;6.72;3.05;;;10.70;89.30;;;;;;2553317;28;20059;-78
2023/12/11 01:11:10;;;;;;;1.05;1.05;;;10.60;89.20;;;;;;2551190;28;20044;-77
2023/12/11 01:12:24;;;;;;;1.65;0.50;;;10.70;89.30;;;;;;2555973;28;20048;-77
2023/12/11 01:13:38;;;;;;;2.13;0.70;;;10.60;89.40;;;;;;2556127;28;20044;-78
2023/12/11 01:14:53;;;;;;;5.88;0.85;;;10.60;89.50;;;;;;2559602;28;20040;-77
2023/12/11 01:16:07;;;;;;;0.57;0.57;;;10.60;89.60;;;;;;2549898;28;20502;-78
2023/12/11 01:17:23;;;;;;;1.65;0.60;;;10.60;89.70;;;;;;2545071;28;20037;-78
2023/12/11 01:18:37;;;;;;;1.85;0.75;;;10.60;89.80;;;;;;2551871;28;20052;-77
2023/12/11 01:19:51;;;;;;;0.63;0.60;;;10.70;89.80;;;;;;2551584;28;20043;-79
2023/12/11 01:21:05;;;;;;;1.25;0.80;;;10.70;89.70;;;;;;2560377;28;20051;-78
2023/12/11 01:22:20;;;;;;;1.40;0.70;;;10.70;89.70;;;;;;2551849;28;20045;-78
2023/12/11 01:23:34;;;;;;;4.97;0.68;;;10.70;89.80;;;;;;2556283;28;20060;-78
2023/12/11 01:24:48;;;;;;;1.25;0.50;;;10.70;89.80;;;;;;2554984;28;20048;-78
2023/12/11 01:26:02;;;;;;;1.85;0.55;;;10.60;89.80;;;;;;2551655;28;20049;-77
2023/12/11 01:27:17;;;;;;;2.15;0.60;;;10.70;89.80;;;;;;2554334;28;20044;-77
2023/12/11 01:28:30;;;;;;;2.00;0.52;;;10.70;89.80;;;;;;2557177;28;20076;-78
2023/12/11 01:29:45;;;;;;;2.58;0.68;;;10.70;89.90;;;;;;2559500;28;20397;-77
2023/12/11 01:30:59;;;;;;;0.93;0.82;;;10.70;90.00;;;;;;2553270;28;20048;-77
2023/12/11 01:32:13;;;;;;;1.45;0.60;;;10.70;89.90;;;;;;2560899;28;20062;-79
2023/12/11 01:33:28;;;;;;;1.10;0.60;;;10.70;90.00;;;;;;2557044;28;20044;-78
2023/12/11 01:34:43;;;;;;;4.32;1.95;;;10.70;90.00;;;;;;2563679;28;20074;-77
2023/12/11 01:35:57;;;;;;;3.90;0.70;;;10.70;90.00;;;;;;2555997;28;20052;-78
2023/12/11 01:37:12;;;;;;;0.55;0.55;;;10.70;90.00;;;;;;2563421;28;20054;-78
2023/12/11 01:38:25;;;;;;;2.90;0.70;;;10.70;90.00;;;;;;2555215;28;20045;-77
2023/12/11 01:39:40;;;;;;;2.65;0.55;;;10.70;90.10;;;;;;2554954;28;20047;-77
2023/12/11 01:40:54;;;;;;;0.98;0.52;;;10.70;90.10;;;;;;2565005;28;20048;-78
2023/12/11 01:42:09;;;;;;;1.83;0.70;;;10.70;90.10;;;;;;2558821;28;20059;-78
2023/12/11 01:43:23;;;;;;;0.85;0.47;;;10.70;90.10;;;;;;2558077;28;20168;-78
2023/12/11 01:44:37;;;;;;;0.55;0.40;;;10.70;90.10;;;;;;2558286;28;20112;-79
2023/12/11 01:46:00;;;;;;;5.57;3.15;;;10.70;90.20;;;;;;2565715;28;20599;-79
2023/12/11 01:47:14;;;;;;;1.10;0.55;;;10.70;90.30;;;;;;2550309;28;20055;-78
2023/12/11 01:48:30;;;;;;;0.60;0.60;;;10.60;90.20;;;;;;2559124;28;20052;-79
2023/12/11 01:49:45;;;;;;;0.75;0.50;;;10.60;90.30;;;;;;2564941;28;20071;-78
2023/12/11 01:50:59;;;;;;;0.88;0.82;;;10.60;90.40;;;;;;2559344;28;20049;-79
2023/12/11 01:52:14;;;;;;;2.17;0.80;;;10.60;90.50;;;;;;2560431;28;20047;-78
2023/12/11 01:53:29;;;;;;;1.10;0.90;;;10.60;90.60;;;;;;2564237;28;20040;-79
2023/12/11 01:54:45;;;;;;;0.93;0.47;;;10.60;90.60;;;;;;2558852;28;20049;-79
2023/12/11 01:55:59;;;;;;;0.40;0.40;;;10.70;90.70;;;;;;2557659;28;20051;-78
2023/12/11 01:57:14;;;;;;;1.63;0.93;;;10.70;90.70;;;;;;2558438;28;20048;-79
2023/12/11 01:58:29;;;;;;;1.63;0.70;;;10.70;90.60;;;;;;2557799;28;20049;-79
2023/12/11 01:59:44;;;;;;;2.20;0.70;;;10.70;90.70;;;;;;2556713;28;20036;-79
2023/12/11 02:00:58;;;;;;;2.42;0.77;;;10.70;90.80;;;;;;2556247;28;20051;-80
2023/12/11 02:02:13;;;;;;;0.75;0.52;;;10.70;90.90;;;;;;2559785;28;20101;-79
2023/12/11 02:03:28;;;;;;;0.82;0.75;;;10.70;90.90;;;;;;2563252;28;20440;-79
2023/12/11 02:04:43;;;;;;;1.50;0.95;;;10.80;91.00;;;;;;2557730;28;20049;-79
2023/12/11 02:05:57;;;;;;;0.82;0.50;;;10.80;91.00;;;;;;2558064;28;20060;-79
2023/12/11 02:07:11;;;;;;;0.77;0.45;;;10.80;91.10;;;;;;2557665;28;20271;-78
2023/12/11 02:08:25;;;;;;;0.60;0.50;;;10.80;91.10;;;;;;2561483;28;20043;-79
2023/12/11 02:09:41;;;;;;;4.28;1.15;;;10.90;91.10;;;;;;2561241;28;20418;-80
2023/12/11 02:10:54;;;;;;;0.45;0.45;;;10.90;91.10;;;;;;2563811;28;20051;-79
2023/12/11 02:12:09;;;;;;;1.52;0.45;;;11.00;91.10;;;;;;2558971;28;20036;-79
2023/12/11 02:13:23;;;;;;;1.38;0.47;;;11.00;91.10;;;;;;2563811;28;20044;-77
2023/12/11 02:14:38;;;;;;;4.22;0.55;;;11.00;91.10;;;;;;2561678;28;20505;-78
2023/12/11 02:15:52;;;;;;;2.45;0.45;;;11.00;91.00;;;;;;2558926;28;20055;-78
2023/12/11 02:17:09;;;;;;;0.45;0.38;;;11.10;91.00;;;;;;2556453;28;20485;-78
2023/12/11 02:18:23;;;;;;;2.70;0.60;;;11.20;91.00;;;;;;2559806;28;20055;-79
2023/12/11 02:19:39;;;;;;;1.67;0.70;;;11.20;91.00;;;;;;2560719;28;20044;-80
2023/12/11 02:20:53;;;;;;;1.20;0.70;;;11.20;90.90;;;;;;2556421;28;20052;-78
2023/12/11 02:22:07;;;;;;;0.43;0.43;;;11.20;90.90;;;;;;2557116;28;20051;-78
2023/12/11 02:23:28;;;;;;;0.82;0.60;;;11.20;90.90;;;;;;2567123;28;20067;-79
2023/12/11 02:24:48;;;;;;;3.30;0.47;;;11.30;90.90;;;;;;2561236;28;20044;-78
2023/12/11 02:26:10;;;;;;;0.47;0.47;;;11.30;90.80;;;;;;2566231;28;20051;-79
2023/12/11 02:27:26;;;;;;;2.78;0.50;;;11.30;90.80;;;;;;2560131;28;20047;-78
2023/12/11 02:28:40;;;;;;;0.50;0.50;;;11.30;90.80;;;;;;2561749;28;20048;-78
2023/12/11 02:29:56;;;;;;;0.43;0.40;;;11.30;90.80;;;;;;2563714;28;20052;-78
2023/12/11 02:31:10;;;;;;;2.88;0.60;;;11.30;90.70;;;;;;2554107;28;20475;-79
2023/12/11 02:32:24;;;;;;;1.92;0.50;;;11.30;90.70;;;;;;2554730;28;20051;-80
2023/12/11 02:33:38;;;;;;;0.52;0.40;;;11.30;90.70;;;;;;2555260;28;20071;-78
2023/12/11 02:34:53;;;;;;;1.23;0.30;;;11.40;90.70;;;;;;2561890;28;20044;-78
2023/12/11 02:36:07;;;;;;;1.27;0.63;;;11.30;90.70;;;;;;2556561;28;20056;-79
2023/12/11 02:37:22;;;;;;;0.30;0.30;;;11.40;90.70;;;;;;2562612;28;20052;-78
2023/12/11 02:38:36;;;;;;;1.45;0.60;;;11.40;90.70;;;;;;2555105;28;20044;-78
2023/12/11 02:39:50;;;;;;;1.85;0.63;;;11.40;90.70;;;;;;2560867;28;20044;-80
2023/12/11 02:41:05;;;;;;;1.63;0.65;;;11.40;90.70;;;;;;2556519;28;20048;-80
2023/12/11 02:42:21;;;;;;;0.32;0.32;;;11.40;90.70;;;;;;2562549;28;20045;-78
2023/12/11 02:43:34;;;;;;;0.28;0.28;;;11.40;90.70;;;;;;2553802;28;20051;-78
2023/12/11 02:44:49;;;;;;;3.15;0.70;;;11.40;90.60;;;;;;2555189;28;20052;-79
2023/12/11 02:46:03;;;;;;;0.68;0.32;;;11.40;90.60;;;;;;2563035;28;20052;-80
2023/12/11 02:47:18;;;;;;;3.38;0.75;;;11.40;90.60;;;;;;2562001;28;20439;-78
2023/12/11 02:48:32;;;;;;;0.60;0.60;;;11.40;90.60;;;;;;2555109;28;20520;-78
2023/12/11 02:49:46;;;;;;;1.40;0.63;;;11.40;90.60;;;;;;2554297;28;20055;-78
2023/12/11 02:51:00;;;;;;;0.30;0.30;;;11.30;90.50;;;;;;2562282;28;20094;-78
2023/12/11 02:52:15;;;;;;;0.57;0.57;;;11.30;90.60;;;;;;2556675;28;20119;-80
2023/12/11 02:53:28;;;;;;;2.03;0.40;;;11.30;90.60;;;;;;2560851;28;20075;-78
2023/12/11 02:54:43;;;;;;;4.25;0.70;;;11.30;90.60;;;;;;2555414;28;20044;-79
2023/12/11 02:55:57;;;;;;;1.85;0.30;;;11.20;91.00;;;;;;2562202;28;20051;-78
2023/12/11 02:57:11;;;;;;;0.98;0.73;;;11.20;90.60;;;;;;2555458;28;20071;-79
2023/12/11 02:58:26;;;;;;;0.20;0.20;;;11.20;90.70;;;;;;2554382;28;20078;-80
2023/12/11 02:59:41;;;;;;;0.55;0.43;;;11.20;90.70;;;;;;2559531;28;20047;-80
2023/12/11 03:00:55;;;;;;;0.50;0.50;;;11.20;90.80;;;;;;2557892;28;20063;-81
2023/12/11 03:02:09;;;;;;;2.92;0.40;;;11.20;90.90;;;;;;2554426;28;20045;-80
2023/12/11 03:03:23;;;;;;;0.73;0.52;;;11.20;90.90;;;;;;2553897;28;20048;-79
2023/12/11 03:04:38;;;;;;;1.25;0.73;;;11.20;90.90;;;;;;2554553;28;20048;-80
2023/12/11 03:05:52;;;;;;;3.45;0.50;;;11.20;91.00;;;;;;2554383;28;20048;-79
2023/12/11 03:07:07;;;;;;;0.65;0.65;;;11.20;91.00;;;;;;2554228;28;20040;-81
2023/12/11 03:08:20;;;;;;;1.50;0.50;;;11.20;90.90;;;;;;2554952;28;20049;-79
2023/12/11 03:09:35;;;;;;;1.38;0.52;;;11.20;90.90;;;;;;2554424;28;20041;-79
2023/12/11 03:10:49;;;;;;;2.80;0.55;;;11.20;90.90;;;;;;2554364;28;20048;-79
2023/12/11 03:12:04;;;;;;;0.52;0.47;;;11.20;90.90;;;;;;2561995;28;20035;-78
2023/12/11 03:13:17;;;;;;;0.98;0.43;;;11.20;90.90;;;;;;2554612;28;20048;-78
2023/12/11 03:14:33;;;;;;;1.20;0.60;;;11.20;90.90;;;;;;2552235;28;20040;-79
2023/12/11 03:15:47;;;;;;;0.55;0.43;;;11.20;90.90;;;;;;2553631;28;20264;-79
2023/12/11 03:17:02;;;;;;;2.00;0.60;;;11.20;90.90;;;;;;2554215;28;20512;-78
2023/12/11 03:18:15;;;;;;;0.63;0.50;;;11.20;91.00;;;;;;2546713;28;20045;-79
2023/12/11 03:19:30;;;;;;;6.28;1.25;;;11.20;91.00;;;;;;2557830;28;20040;-80
2023/12/11 03:20:44;;;;;;;2.45;0.68;;;11.20;91.00;;;;;;2564838;28;20055;-80
2023/12/11 03:21:58;;;;;;;1.45;0.52;;;11.20;91.00;;;;;;2557308;28;20053;-80
2023/12/11 03:23:12;;;;;;;2.15;0.80;;;11.20;91.00;;;;;;2554803;28;20052;-79
2023/12/11 03:24:26;;;;;;;0.55;0.55;;;11.20;91.00;;;;;;2554265;28;20032;-80
2023/12/11 03:27:51;;;;;;;0.75;0.60;;;11.20;91.00;;;;;;2549858;28;20086;-80
2023/12/11 03:29:05;;;;;;;0.65;0.45;;;11.10;91.10;;;;;;2565981;28;20052;-81
2023/12/11 03:30:21;;;;;;;0.88;0.40;;;11.20;91.20;;;;;;2557181;28;20052;-81
2023/12/11 03:31:35;;;;;;;2.85;0.57;;;11.20;91.20;;;;;;2556820;28;20090;-80
2023/12/11 03:32:50;;;;;;;0.90;0.40;;;11.20;91.20;;;;;;2564519;28;20044;-81
2023/12/11 03:34:03;;;;;;;2.03;0.50;;;11.20;91.20;;;;;;2558713;28;20049;-78
2023/12/11 03:35:18;;;;;;;0.52;0.30;;;11.20;91.20;;;;;;2557614;28;20045;-79
2023/12/11 03:36:32;;;;;;;0.65;0.30;;;11.20;91.10;;;;;;2557110;28;20044;-79
2023/12/11 03:37:46;;;;;;;2.50;0.68;;;11.20;91.10;;;;;;2564484;28;20044;-78
2023/12/11 03:39:00;;;;;;;14.25;1.42;;;11.10;91.10;;;;;;2567186;28;20048;-81
2023/12/11 03:40:15;;;;;;;0.93;0.93;;;11.10;91.20;;;;;;2567019;28;20048;-79
2023/12/11 03:41:28;;;;;;;1.00;0.40;;;11.20;91.30;;;;;;2557130;28;20040;-83
2023/12/11 03:42:43;;;;;;;4.07;1.38;;;11.20;91.30;;;;;;2563927;28;20040;-82
2023/12/11 03:43:57;;;;;;;0.47;0.40;;;11.20;91.20;;;;;;2560200;28;20044;-78
2023/12/11 03:45:11;;;;;;;0.60;0.45;;;11.10;91.20;;;;;;2567877;28;20136;-78
2023/12/11 03:46:27;;;;;;;0.50;0.50;;;11.10;91.20;;;;;;2568289;28;20044;-81
2023/12/11 03:47:41;;;;;;;4.15;1.40;;;11.10;91.30;;;;;;2563076;28;20036;-80
2023/12/11 03:48:55;;;;;;;0.60;0.40;;;11.10;91.40;;;;;;2564429;28;20059;-80
2023/12/11 03:50:10;;;;;;;0.43;0.30;;;11.10;91.40;;;;;;2560936;28;20100;-83
2023/12/11 03:51:23;;;;;;;0.20;0.20;;;11.10;91.50;;;;;;2565044;28;20048;-81
2023/12/11 03:52:38;;;;;;;0.47;0.30;;;11.10;91.40;;;;;;2559395;28;20075;-82
2023/12/11 03:53:52;;;;;;;0.32;0.30;;;11.10;91.40;;;;;;2567068;28;20032;-75
2023/12/11 03:55:07;;;;;;;2.47;0.75;;;11.10;91.40;;;;;;2569554;28;20047;-80
2023/12/11 03:56:21;;;;;;;0.47;0.35;;;11.10;91.40;;;;;;2553018;28;20052;-81
2023/12/11 03:57:36;;;;;;;0.82;0.40;;;11.10;91.40;;;;;;2551982;28;20044;-78
2023/12/11 03:58:50;;;;;;;1.13;0.75;;;11.10;91.50;;;;;;2553056;28;20119;-80
2023/12/11 04:00:06;;;;;;;0.40;0.40;;;11.10;91.50;;;;;;2551961;28;20049;-80
2023/12/11 04:01:20;;;;;;;0.82;0.43;;;11.10;91.60;;;;;;2544700;28;20045;-80
2023/12/11 04:02:36;;;;;;;0.85;0.85;;;11.10;91.60;;;;;;2552508;28;20125;-80
2023/12/11 04:03:49;;;;;;;0.70;0.70;;;11.20;91.60;;;;;;2552171;28;20044;-80
2023/12/11 04:05:05;;;;;;;2.28;0.50;;;11.20;91.50;;;;;;2553530;28;20045;-80
2023/12/11 04:06:18;;;;;;;3.03;0.30;;;11.20;91.50;;;;;;2544424;28;20076;-80
2023/12/11 04:07:33;;;;;;;0.65;0.32;;;11.10;91.40;;;;;;2552597;28;20036;-80
2023/12/11 04:08:47;;;;;;;2.05;0.70;;;11.20;91.40;;;;;;2552527;28;20086;-79
2023/12/11 04:10:03;;;;;;;1.52;0.80;;;11.10;91.40;;;;;;2560391;28;20582;-77
2023/12/11 04:11:16;;;;;;;1.98;0.70;;;11.10;91.40;;;;;;2560517;28;20051;-80
2023/12/11 04:12:31;;;;;;;1.63;0.57;;;11.10;91.40;;;;;;2553598;28;20041;-77
2023/12/11 04:13:45;;;;;;;0.60;0.60;;;11.10;91.40;;;;;;2552682;28;20441;-77
2023/12/11 04:14:59;;;;;;;0.30;0.30;;;11.10;91.50;;;;;;2552911;28;20052;-80
2023/12/11 04:16:13;;;;;;;3.17;0.50;;;11.10;91.60;;;;;;2562271;28;20497;-80
2023/12/11 04:17:28;;;;;;;0.95;0.65;;;11.10;91.60;;;;;;2563502;28;20039;-81
2023/12/11 04:18:43;;;;;;;4.57;0.50;;;11.10;91.60;;;;;;2558043;28;20059;-81
2023/12/11 04:19:58;;;;;;;2.20;0.75;;;11.20;91.60;;;;;;2561315;28;20128;-81
2023/12/11 04:21:12;;;;;;;2.20;0.40;;;11.20;91.50;;;;;;2555782;28;20485;-81
2023/12/11 04:22:27;;;;;;;0.38;0.32;;;11.20;91.50;;;;;;2554747;28;20131;-80
2023/12/11 04:23:41;;;;;;;0.85;0.47;;;11.10;91.40;;;;;;2554781;28;20113;-81
2023/12/11 04:24:56;;;;;;;1.25;0.52;;;11.10;91.40;;;;;;2556556;28;20117;-79
2023/12/11 04:26:09;;;;;;;0.85;0.55;;;11.10;91.30;;;;;;2555811;28;20049;-80
2023/12/11 04:27:24;;;;;;;0.75;0.40;;;11.10;91.30;;;;;;2555139;28;20151;-80
2023/12/11 04:28:38;;;;;;;1.83;0.73;;;11.00;91.20;;;;;;2555331;28;20575;-80
2023/12/11 04:29:52;;;;;;;0.68;0.57;;;11.00;91.20;;;;;;2555898;28;20049;-78
2023/12/11 04:31:06;;;;;;;1.27;0.57;;;11.00;91.30;;;;;;2555656;28;20052;-81
2023/12/11 04:32:21;;;;;;;0.85;0.52;;;10.90;91.30;;;;;;2555990;28;20511;-80
2023/12/11 04:33:37;;;;;;;0.98;0.50;;;10.90;91.30;;;;;;2555678;28;20056;-81
2023/12/11 04:34:53;;;;;;;2.10;0.57;;;10.90;91.30;;;;;;2556279;28;20046;-81
2023/12/11 04:36:09;;;;;;;1.75;0.73;;;10.80;91.30;;;;;;2555418;28;20044;-81
2023/12/11 04:37:22;;;;;;;0.38;0.38;;;10.80;91.30;;;;;;2555684;28;20157;-80
2023/12/11 04:38:37;;;;;;;0.75;0.75;;;10.80;91.30;;;;;;2556175;28;20074;-81
2023/12/11 04:39:51;;;;;;;0.57;0.55;;;10.80;91.30;;;;;;2555684;28;20599;-80
2023/12/11 04:41:06;;;;;;;0.52;0.40;;;10.70;91.30;;;;;;2556242;28;20044;-81
2023/12/11 04:42:19;;;;;;;4.57;1.85;;;10.70;91.30;;;;;;2556010;28;20049;-80
2023/12/11 04:43:34;;;;;;;0.70;0.60;;;10.70;91.40;;;;;;2555475;28;20045;-80
2023/12/11 04:44:48;;;;;;;2.13;0.50;;;10.60;91.40;;;;;;2555824;28;20399;-81
2023/12/11 04:46:03;;;;;;;1.10;0.50;;;10.60;91.40;;;;;;2556127;28;20070;-81
2023/12/11 04:47:17;;;;;;;3.08;0.60;;;10.60;91.40;;;;;;2555536;28;21663;-81
2023/12/11 04:48:32;;;;;;;1.15;0.60;;;10.60;91.50;;;;;;2556786;28;20051;-81
2023/12/11 04:49:45;;;;;;;6.57;0.90;;;10.60;91.50;;;;;;2556476;28;20044;-81
2023/12/11 04:51:03;;;;;;;1.55;0.45;;;10.60;91.50;;;;;;2555266;28;20044;-80
2023/12/11 04:52:17;;;;;;;0.35;0.35;;;10.60;91.50;;;;;;2556344;28;20089;-81
2023/12/11 04:53:32;;;;;;;1.77;0.40;;;10.50;91.50;;;;;;2556105;28;20059;-80
2023/12/11 04:54:45;;;;;;;1.25;0.70;;;10.50;91.50;;;;;;2556651;28;20052;-81
2023/12/11 04:56:05;;;;;;;0.63;0.55;;;10.50;91.50;;;;;;2558250;28;20040;-80
2023/12/11 04:57:19;;;;;;;1.77;1.58;;;10.50;91.50;;;;;;2556182;28;20079;-80
2023/12/11 04:58:33;;;;;;;1.38;0.50;;;10.50;91.60;;;;;;2556193;28;20044;-81
2023/12/11 04:59:47;;;;;;;1.00;0.40;;;10.50;91.70;;;;;;2556109;28;20048;-80
2023/12/11 05:01:02;;;;;;;1.27;0.57;;;10.60;91.80;;;;;;2555561;28;20412;-81
2023/12/11 05:02:16;;;;;;;1.13;0.50;;;10.60;91.80;;;;;;2555250;28;20054;-82
2023/12/11 05:03:30;;;;;;;1.20;0.60;;;10.60;91.80;;;;;;2554827;28;20128;-81
2023/12/11 05:04:44;;;;;;;0.40;0.40;;;10.60;91.80;;;;;;2555955;28;20048;-81
2023/12/11 05:05:59;;;;;;;1.52;0.63;;;10.70;91.80;;;;;;2556032;28;20053;-81
2023/12/11 05:07:14;;;;;;;0.75;0.60;;;10.70;91.70;;;;;;2556126;28;20044;-81
2023/12/11 05:08:29;;;;;;;0.40;0.40;;;10.70;91.70;;;;;;2558877;28;20044;-81
2023/12/11 05:09:42;;;;;;;0.50;0.50;;;10.70;91.60;;;;;;2562324;28;20048;-81
2023/12/11 05:10:57;;;;;;;1.23;0.63;;;10.70;91.60;;;;;;2564192;28;20048;-81
2023/12/11 05:12:11;;;;;;;3.80;0.93;;;10.70;91.50;;;;;;2558043;28;20044;-79
2023/12/11 05:13:25;;;;;;;0.82;0.60;;;10.80;91.50;;;;;;2559033;28;20044;-81
2023/12/11 05:14:39;;;;;;;0.98;0.40;;;10.80;91.40;;;;;;2559968;28;20048;-81
2023/12/11 05:15:54;;;;;;;1.20;1.10;;;10.80;91.30;;;;;;2552712;28;20501;-82
2023/12/11 05:17:08;;;;;;;0.68;0.32;;;10.70;91.30;;;;;;2557727;28;20057;-81
2023/12/11 05:18:23;;;;;;;0.93;0.85;;;10.80;91.30;;;;;;2549253;28;20072;-81
2023/12/11 05:19:37;;;;;;;0.40;0.40;;;10.70;91.30;;;;;;2561566;28;20043;-81
2023/12/11 05:20:51;;;;;;;2.78;0.40;;;10.70;91.20;;;;;;2555559;28;20045;-80
2023/12/11 05:22:05;;;;;;;1.65;0.80;;;10.70;91.20;;;;;;2555698;28;20041;-81
2023/12/11 05:23:21;;;;;;;3.33;0.50;;;10.70;91.10;;;;;;2554590;28;20492;-80
2023/12/11 05:24:35;;;;;;;0.80;0.45;;;10.70;91.10;;;;;;2556447;28;20055;-81
2023/12/11 05:25:49;;;;;;;1.67;0.68;;;10.70;91.10;;;;;;2557062;28;20075;-79
2023/12/11 05:27:04;;;;;;;4.97;1.58;;;10.70;91.10;;;;;;2554090;28;20092;-81
2023/12/11 05:28:18;;;;;;;0.60;0.50;;;10.60;91.10;;;;;;2556051;28;20094;-80
2023/12/11 05:29:32;;;;;;;0.70;0.70;;;10.60;91.00;;;;;;2554996;28;20044;-79
2023/12/11 05:30:47;;;;;;;0.57;0.50;;;10.60;91.00;;;;;;2555357;28;20699;-81
2023/12/11 05:32:00;;;;;;;1.88;0.93;;;10.60;91.40;;;;;;2555325;28;20048;-81
2023/12/11 05:33:15;;;;;;;2.42;0.57;;;10.60;91.10;;;;;;2555679;28;20071;-80
2023/12/11 05:34:31;;;;;;;1.27;0.40;;;10.60;91.10;;;;;;2554763;28;20040;-80
2023/12/11 05:35:46;;;;;;;2.08;0.80;;;10.60;91.10;;;;;;2555492;28;20044;-80
2023/12/11 05:37:00;;;;;;;1.80;0.60;;;10.60;91.10;;;;;;2554414;28;20052;-79
2023/12/11 05:38:14;;;;;;;3.00;0.68;;;10.60;91.20;;;;;;2547650;28;20489;-82
2023/12/11 05:39:30;;;;;;;1.25;0.35;;;10.60;91.50;;;;;;2556006;28;20055;-81
2023/12/11 05:40:45;;;;;;;1.95;0.65;;;10.60;91.20;;;;;;2562288;28;20048;-81
2023/12/11 05:41:58;;;;;;;1.38;0.75;;;10.60;91.20;;;;;;2558251;28;20053;-80
2023/12/11 05:43:13;;;;;;;0.82;0.60;;;10.60;91.20;;;;;;2555375;28;20055;-82
2023/12/11 05:44:27;;;;;;;1.00;0.60;;;10.60;91.10;;;;;;2555998;28;20059;-81
2023/12/11 05:45:42;;;;;;;0.65;0.50;;;10.70;91.10;;;;;;2555952;28;20044;-82
2023/12/11 05:46:55;;;;;;;1.85;1.02;;;10.70;91.00;;;;;;2554644;28;20040;-80
2023/12/11 05:48:10;;;;;;;3.47;0.93;;;10.70;90.90;;;;;;2554931;28;20037;-82
2023/12/11 05:49:24;;;;;;;0.73;0.60;;;10.70;90.90;;;;;;2554711;28;20084;-80
2023/12/11 05:50:38;;;;;;;3.25;0.70;;;10.60;90.80;;;;;;2555186;28;20077;-81
2023/12/11 05:51:53;;;;;;;0.90;0.50;;;10.70;90.80;;;;;;2549547;28;20049;-81
2023/12/11 05:53:08;;;;;;;2.10;0.40;;;10.70;90.90;;;;;;2553930;28;20072;-80
2023/12/11 05:54:21;;;;;;;0.50;0.50;;;10.60;90.80;;;;;;2555401;28;20056;-80
2023/12/11 05:55:37;;;;;;;1.55;0.80;;;10.70;90.90;;;;;;2558200;28;20045;-81
2023/12/11 05:56:51;;;;;;;1.17;0.82;;;10.70;90.80;;;;;;2549521;28;20049;-80
2023/12/11 05:58:06;;;;;;;0.70;0.38;;;10.70;90.80;;;;;;2558909;28;20048;-81
2023/12/11 05:59:19;;;;;;;1.15;0.70;;;10.70;90.80;;;;;;2547590;28;20040;-80
2023/12/11 06:00:34;;;;;;;0.77;0.45;;;10.70;90.80;;;;;;2560991;28;20048;-80
2023/12/11 06:01:48;;;;;;;2.70;0.40;;;10.70;90.70;;;;;;2560521;28;20071;-82
2023/12/11 06:03:02;;;;;;;0.50;0.30;;;10.70;90.70;;;;;;2552304;28;20387;-80
2023/12/11 06:04:16;;;;;;;1.63;0.75;;;10.80;90.70;;;;;;2553680;28;20048;-80
2023/12/11 06:05:31;;;;;;;1.88;0.80;;;10.80;90.60;;;;;;2551979;28;20048;-81
2023/12/11 06:06:44;;;;;;;1.45;0.60;;;10.80;90.60;;;;;;2550031;28;20049;-82
2023/12/11 06:07:59;;;;;;;1.73;0.50;;;10.80;90.50;;;;;;2555421;28;20055;-82
2023/12/11 06:09:13;;;;;;;0.47;0.45;;;10.80;90.40;;;;;;2548077;28;20053;-81
2023/12/11 06:10:28;;;;;;;0.55;0.32;;;10.80;90.40;;;;;;2554199;28;20054;-81
2023/12/11 06:11:44;;;;;;;2.15;0.60;;;10.90;90.40;;;;;;2554119;28;20098;-82
2023/12/11 06:12:59;;;;;;;1.70;1.38;;;10.90;90.30;;;;;;2560996;28;20182;-80
2023/12/11 06:14:13;;;;;;;0.60;0.45;;;10.90;90.30;;;;;;2547816;28;20052;-81
2023/12/11 06:15:27;;;;;;;1.33;1.10;;;10.90;90.30;;;;;;2554182;28;20493;-80
2023/12/11 06:16:41;;;;;;;0.85;0.52;;;11.00;90.20;;;;;;2553551;28;20060;-79
2023/12/11 06:17:56;;;;;;;0.32;0.32;;;11.00;90.20;;;;;;2553953;28;20052;-79
2023/12/11 06:19:09;;;;;;;3.22;0.98;;;11.00;90.10;;;;;;2553614;28;20118;-80
2023/12/11 06:20:24;;;;;;;1.52;0.50;;;11.00;90.00;;;;;;2546343;28;20183;-80
2023/12/11 06:21:40;;;;;;;2.10;0.60;;;11.10;90.00;;;;;;2554149;28;20490;-80
2023/12/11 06:22:55;;;;;;;0.88;0.60;;;11.10;89.90;;;;;;2554701;28;20072;-80
2023/12/11 06:24:09;;;;;;;0.60;0.40;;;11.10;89.70;;;;;;2553578;28;20048;-80
2023/12/11 06:25:23;;;;;;;1.55;0.60;;;11.20;89.60;;;;;;2561035;28;20040;-79
2023/12/11 06:26:42;;;;;;;2.03;0.40;;;11.20;89.50;;;;;;2551126;28;20044;-79
2023/12/11 06:27:58;;;;;;;0.50;0.40;;;11.20;89.30;;;;;;2558992;28;20127;-79
2023/12/11 06:29:12;;;;;;;2.90;0.60;;;11.30;89.10;;;;;;2554481;28;20051;-79
2023/12/11 06:30:26;;;;;;;1.58;0.85;;;11.30;88.80;;;;;;2546785;28;20047;-79